Time;durP1;ratioP1;P1;durP2;ratioP2;P2;SDS_P1;SDS_P2;PMS_P1;PMS_P2;Temp;Humidity;BMP_temperature;BMP_pressure;BME280_temperature;BME280_humidity;BME280_pressure;Samples;Min_cycle;Max_cycle;Signal;HPM_P1;HPM_P2
2022/04/27 00:02:15;;;;;;;5.85;3.67;;;;;;;-149.78;100.00;50365.84;4865801;29;20032;-71
2022/04/27 00:04:41;;;;;;;9.63;4.13;;;;;;;-149.78;100.00;50361.91;4896698;29;20037;-70
2022/04/27 00:07:07;;;;;;;14.77;4.93;;;;;;;-149.78;100.00;50381.47;4896673;29;20040;-72
2022/04/27 00:09:33;;;;;;;12.27;4.38;;;;;;;-149.78;100.00;50377.56;4897546;29;20077;-71
2022/04/27 00:12:01;;;;;;;15.82;5.10;;;;;;;-149.78;100.00;50358.00;4906415;29;20397;-70
2022/04/27 00:14:32;;;;;;;14.77;4.55;;;;;;;-149.78;100.00;50373.66;4903400;29;20040;-70
2022/04/27 00:16:58;;;;;;;15.38;5.43;;;;;;;-149.78;100.00;50371.69;4915581;29;20036;-70
2022/04/27 00:19:24;;;;;;;12.63;5.20;;;;;;;-149.78;100.00;50428.41;4906474;29;20040;-70
2022/04/27 00:21:50;;;;;;;14.30;5.38;;;;;;;-149.78;100.00;50369.75;4865545;29;20139;-70
2022/04/27 00:24:16;;;;;;;14.80;5.38;;;;;;;-149.78;100.00;50354.09;4897687;29;20123;-71
2022/04/27 00:26:41;;;;;;;16.23;6.28;;;;;;;-149.78;100.00;50389.31;4897696;29;20504;-71
2022/04/27 00:29:07;;;;;;;14.40;5.85;;;;;;;-149.78;100.00;50373.66;4896444;29;20483;-71
2022/04/27 00:31:33;;;;;;;13.07;6.13;;;;;;;-149.78;100.00;50367.78;4880919;29;20099;-70
2022/04/27 00:34:00;;;;;;;19.55;5.97;;;;;;;-149.78;100.00;50371.69;4896387;29;20489;-70
2022/04/27 00:36:27;;;;;;;15.50;6.50;;;;;;;-149.78;100.00;50385.38;4900188;29;20054;-71
2022/04/27 00:38:53;;;;;;;12.77;5.90;;;;;;;-149.78;100.00;50373.66;4916473;29;20047;-71
2022/04/27 00:41:19;;;;;;;14.38;5.90;;;;;;;-149.78;100.00;50369.75;4915286;29;20492;-71
2022/04/27 00:43:45;;;;;;;11.68;5.90;;;;;;;-149.78;100.00;50377.56;4916230;29;20031;-70
2022/04/27 00:46:11;;;;;;;10.82;5.90;;;;;;;-149.78;100.00;50369.75;4911646;29;20028;-71
2022/04/27 00:48:39;;;;;;;17.42;6.88;;;;;;;-149.78;100.00;50377.56;4896145;29;20755;-71
2022/04/27 00:51:05;;;;;;;19.42;6.93;;;;;;;-149.78;100.00;50404.94;4878600;29;20497;-71
2022/04/27 00:53:31;;;;;;;19.15;6.57;;;;;;;-149.78;100.00;50371.69;4862014;29;20439;-71
2022/04/27 00:56:01;;;;;;;24.20;8.73;;;;;;;-149.78;100.00;50389.31;4878803;29;20044;-70
2022/04/27 00:58:27;;;;;;;17.17;8.07;;;;;;;-149.78;100.00;50373.66;4878554;29;20037;-70
2022/04/27 01:00:54;;;;;;;20.25;9.07;;;;;;;-149.78;100.00;50383.44;4878936;29;20093;-71
2022/04/27 01:03:22;;;;;;;18.70;7.90;;;;;;;-149.78;100.00;50381.47;4877348;29;20036;-70
2022/04/27 01:05:49;;;;;;;18.50;8.23;;;;;;;-149.78;100.00;50381.47;4877451;29;20045;-71
2022/04/27 01:08:21;;;;;;;21.45;8.90;;;;;;;-149.78;100.00;50373.66;4861961;29;20478;-70
2022/04/27 01:10:48;;;;;;;24.92;9.85;;;;;;;-149.78;100.00;50365.84;4877524;29;20043;-71
2022/04/27 01:13:15;;;;;;;26.08;9.77;;;;;;;-149.78;100.00;50397.13;4862083;29;20041;-71
2022/04/27 01:15:40;;;;;;;20.77;9.43;;;;;;;-149.78;100.00;50385.38;4892272;29;20445;-71
2022/04/27 01:18:10;;;;;;;24.92;9.15;;;;;;;-149.78;100.00;50391.25;4880429;29;20045;-70
2022/04/27 01:20:44;;;;;;;22.17;9.40;;;;;;;-149.78;100.00;50397.13;4897043;29;20449;-71
2022/04/27 01:23:14;;;;;;;18.25;9.40;;;;;;;-149.78;100.00;50399.09;4895946;29;20041;-71
2022/04/27 01:25:49;;;;;;;21.88;9.32;;;;;;;-149.78;100.00;50406.91;4884249;29;20037;-71
2022/04/27 01:28:20;;;;;;;22.30;9.20;;;;;;;-149.78;100.00;50381.47;4885151;29;20127;-71
2022/04/27 01:30:47;;;;;;;24.00;9.18;;;;;;;-149.78;100.00;50391.25;4896837;29;20380;-71
2022/04/27 01:33:13;;;;;;;17.50;8.57;;;;;;;-149.78;100.00;50401.03;4895612;29;20050;-71
2022/04/27 01:35:40;;;;;;;19.02;8.50;;;;;;;-149.78;100.00;50397.13;4895727;29;20033;-70
2022/04/27 01:38:07;;;;;;;19.00;9.23;;;;;;;-149.78;100.00;50389.31;4897022;29;20056;-71
2022/04/27 01:40:34;;;;;;;25.58;9.13;;;;;;;-149.78;100.00;50385.38;4896875;29;20485;-71
2022/04/27 01:42:59;;;;;;;21.15;8.93;;;;;;;-149.78;100.00;50365.84;4896575;29;20040;-71
2022/04/27 01:45:25;;;;;;;18.15;8.55;;;;;;;-149.78;100.00;50416.69;4895546;29;20071;-71
2022/04/27 01:47:54;;;;;;;21.30;8.57;;;;;;;-149.78;100.00;50404.94;4895535;29;20044;-72
2022/04/27 01:50:20;;;;;;;19.73;8.88;;;;;;;-149.78;100.00;50389.31;4908405;29;20055;-72
2022/04/27 01:55:30;;;;;;;19.83;7.47;;;;;;;-149.78;100.00;50408.84;4915436;29;20392;-72
2022/04/27 01:57:56;;;;;;;14.70;6.75;;;;;;;-149.78;100.00;50381.47;4915748;29;20051;-71
2022/04/27 02:00:21;;;;;;;18.75;7.68;;;;;;;-149.78;100.00;50416.69;4917519;29;20123;-71
2022/04/27 02:02:48;;;;;;;20.40;7.32;;;;;;;-149.78;100.00;50414.72;4918786;29;20155;-71
2022/04/27 02:05:14;;;;;;;18.30;7.55;;;;;;;-149.78;100.00;50373.66;4918912;29;20044;-71
2022/04/27 02:07:43;;;;;;;20.98;7.60;;;;;;;-149.78;100.00;50381.47;4918843;29;20032;-72
2022/04/27 02:10:09;;;;;;;21.40;7.05;;;;;;;-149.78;100.00;50420.59;4902073;29;20511;-72
2022/04/27 02:12:35;;;;;;;20.95;7.38;;;;;;;-149.78;100.00;50381.47;4917431;29;20432;-72
2022/04/27 02:15:02;;;;;;;21.13;7.75;;;;;;;-149.78;100.00;50389.31;4908401;29;20168;-72
2022/04/27 02:17:28;;;;;;;14.60;7.25;;;;;;;-149.78;100.00;50397.13;4898470;29;20048;-71
2022/04/27 02:19:54;;;;;;;20.08;7.25;;;;;;;-149.78;100.00;50385.38;4899620;29;20116;-72
2022/04/27 02:22:20;;;;;;;17.75;6.85;;;;;;;-149.78;100.00;50391.25;4898549;29;20040;-72
2022/04/27 02:24:45;;;;;;;19.55;7.10;;;;;;;-149.78;100.00;50397.13;4898445;29;20043;-72
2022/04/27 02:27:11;;;;;;;17.52;7.18;;;;;;;-149.78;100.00;50365.84;4891967;29;20504;-71
2022/04/27 02:29:37;;;;;;;16.83;6.70;;;;;;;-149.78;100.00;50397.13;4906184;29;20131;-72
2022/04/27 02:32:03;;;;;;;21.15;7.60;;;;;;;-149.78;100.00;50397.13;4911423;29;20397;-71
2022/04/27 02:34:28;;;;;;;15.80;6.45;;;;;;;-149.78;100.00;50385.38;4897813;29;20041;-71
2022/04/27 02:36:54;;;;;;;16.85;6.15;;;;;;;-149.78;100.00;50369.75;4901625;29;20036;-71
2022/04/27 02:39:20;;;;;;;11.98;5.60;;;;;;;-149.78;100.00;50393.22;4917003;29;20070;-71
2022/04/27 02:41:45;;;;;;;14.90;5.70;;;;;;;-149.78;100.00;50389.31;4908469;29;20040;-72
2022/04/27 02:44:11;;;;;;;22.58;5.90;;;;;;;-149.78;100.00;50408.84;4899325;29;20032;-72
2022/04/27 02:46:39;;;;;;;14.48;4.95;;;;;;;-149.78;100.00;50428.41;4896834;29;20374;-71
2022/04/27 02:51:49;;;;;;;14.05;5.18;;;;;;;-149.78;100.00;50408.84;4899371;29;20048;-71
2022/04/27 02:54:20;;;;;;;15.10;4.70;;;;;;;-149.78;100.00;50397.13;4899254;29;20036;-71
2022/04/27 02:56:47;;;;;;;16.38;5.20;;;;;;;-149.78;100.00;50381.47;4899330;29;20120;-71
2022/04/27 02:59:14;;;;;;;12.85;5.32;;;;;;;-149.78;100.00;50387.34;4899294;29;20123;-71
2022/04/27 03:01:39;;;;;;;18.48;5.28;;;;;;;-149.78;100.00;50401.03;4897941;29;20043;-71
2022/04/27 03:04:06;;;;;;;13.82;5.22;;;;;;;-149.78;100.00;50420.59;4899189;29;20036;-71
2022/04/27 03:06:32;;;;;;;13.45;5.53;;;;;;;-149.78;100.00;50395.16;4902535;29;20083;-71
2022/04/27 03:08:58;;;;;;;12.45;5.07;;;;;;;-149.78;100.00;50397.13;4897595;29;20115;-71
2022/04/27 03:11:23;;;;;;;14.35;5.25;;;;;;;-149.78;100.00;50375.63;4898761;29;20040;-71
2022/04/27 03:13:50;;;;;;;15.35;5.28;;;;;;;-149.78;100.00;50330.63;4898796;29;20112;-72
2022/04/27 03:16:15;;;;;;;14.18;5.20;;;;;;;-149.78;100.00;50385.38;4897563;29;20048;-71
2022/04/27 03:18:42;;;;;;;11.18;5.05;;;;;;;-149.78;100.00;50385.38;4898608;29;20501;-71
2022/04/27 03:21:09;;;;;;;15.15;5.68;;;;;;;-149.78;100.00;50401.03;4880515;29;20040;-71
2022/04/27 03:23:35;;;;;;;12.23;5.45;;;;;;;-149.78;100.00;50385.38;4895666;29;20037;-72
2022/04/27 03:26:02;;;;;;;11.98;5.20;;;;;;;-149.78;100.00;50373.66;4898192;29;20071;-71
2022/04/27 03:28:28;;;;;;;15.32;5.13;;;;;;;-149.78;100.00;50397.13;4881714;29;20059;-71
2022/04/27 03:30:54;;;;;;;12.48;5.00;;;;;;;-149.78;100.00;50395.16;4886657;29;20036;-71
2022/04/27 03:33:20;;;;;;;14.40;5.10;;;;;;;-149.78;100.00;50416.69;4917086;29;20397;-72
2022/04/27 03:35:46;;;;;;;16.80;5.50;;;;;;;-149.78;100.00;50373.66;4909417;29;20037;-73
2022/04/27 03:38:13;;;;;;;15.52;5.05;;;;;;;-149.78;100.00;50416.69;4888144;29;20104;-71
2022/04/27 03:40:41;;;;;;;11.35;5.32;;;;;;;-149.78;100.00;50412.78;4893730;29;20036;-71
2022/04/27 03:43:08;;;;;;;17.52;5.13;;;;;;;-149.78;100.00;50399.09;4898042;29;20041;-71
2022/04/27 03:45:35;;;;;;;15.73;4.95;;;;;;;-149.78;100.00;50401.03;4897914;29;20084;-71
2022/04/27 03:48:01;;;;;;;9.68;5.00;;;;;;;-149.78;100.00;50369.75;4897903;29;20111;-71
2022/04/27 03:50:27;;;;;;;11.25;4.72;;;;;;;-149.78;100.00;50389.31;4897816;29;20055;-71
2022/04/27 03:52:52;;;;;;;18.10;4.93;;;;;;;-149.78;100.00;50420.59;4898089;29;20369;-71
2022/04/27 03:55:19;;;;;;;9.80;4.90;;;;;;;-149.78;100.00;50381.47;4897828;29;20044;-71
2022/04/27 03:57:45;;;;;;;15.48;5.13;;;;;;;-149.78;100.00;50403.00;4896780;29;20072;-71
2022/04/27 04:00:12;;;;;;;17.08;7.80;;;;;;;-149.78;100.00;50373.66;4897964;29;20041;-71
2022/04/27 04:02:37;;;;;;;14.85;5.40;;;;;;;-149.78;100.00;50397.13;4896789;29;20037;-71
2022/04/27 04:05:07;;;;;;;15.77;5.05;;;;;;;-149.78;100.00;50391.25;4897709;29;20409;-71
2022/04/27 04:07:34;;;;;;;14.38;6.15;;;;;;;-149.78;100.00;50418.63;4881087;29;20084;-71
2022/04/27 04:10:02;;;;;;;14.10;5.30;;;;;;;-149.78;100.00;50401.03;4896423;29;20088;-71
2022/04/27 04:12:28;;;;;;;11.55;5.18;;;;;;;-149.78;100.00;50383.44;4897723;29;20044;-71
2022/04/27 04:14:53;;;;;;;12.80;5.95;;;;;;;-149.78;100.00;50389.31;4865301;29;20040;-71
2022/04/27 04:17:19;;;;;;;15.15;5.18;;;;;;;-149.78;100.00;50389.31;4897483;29;20056;-71
2022/04/27 04:19:45;;;;;;;13.85;5.50;;;;;;;-149.78;100.00;50444.06;4895743;29;20092;-71
2022/04/27 04:22:12;;;;;;;12.20;5.55;;;;;;;-149.78;100.00;50377.56;4897487;29;20040;-71
2022/04/27 04:24:38;;;;;;;15.52;5.65;;;;;;;-149.78;100.00;50404.94;4897393;29;20115;-71
2022/04/27 04:29:48;;;;;;;17.00;5.32;;;;;;;-149.78;100.00;50440.16;4897405;29;20051;-71
2022/04/27 04:32:13;;;;;;;17.58;6.25;;;;;;;-149.78;100.00;50420.59;4897276;29;20037;-71
2022/04/27 04:34:39;;;;;;;13.27;5.65;;;;;;;-149.78;100.00;50408.84;4897323;29;20064;-70
2022/04/27 04:37:05;;;;;;;12.85;5.60;;;;;;;-149.78;100.00;50393.22;4902133;29;20070;-70
2022/04/27 04:39:30;;;;;;;15.40;5.40;;;;;;;-149.78;100.00;50377.56;4915008;29;20036;-70
2022/04/27 04:41:56;;;;;;;13.02;5.35;;;;;;;-149.78;100.00;50420.59;4904188;29;20040;-70
2022/04/27 04:44:21;;;;;;;17.25;5.00;;;;;;;-149.78;100.00;50377.56;4896823;29;20048;-71
2022/04/27 04:46:48;;;;;;;14.55;5.63;;;;;;;-149.78;100.00;50381.47;4864105;29;20374;-70
2022/04/27 04:49:13;;;;;;;21.15;5.30;;;;;;;-149.78;100.00;50393.22;4892867;29;20052;-71
2022/04/27 04:51:39;;;;;;;14.55;5.22;;;;;;;-149.78;100.00;50395.16;4878603;29;20037;-71
2022/04/27 04:54:04;;;;;;;12.43;4.70;;;;;;;-149.78;100.00;50389.31;4893189;29;20040;-71
2022/04/27 04:56:30;;;;;;;16.55;5.00;;;;;;;-149.78;100.00;50381.47;4878511;29;20033;-71
2022/04/27 04:58:56;;;;;;;12.35;4.43;;;;;;;-149.78;100.00;50389.31;4893562;29;20044;-71
2022/04/27 05:01:22;;;;;;;12.43;4.75;;;;;;;-149.78;100.00;50367.78;4897330;29;20047;-71
2022/04/27 05:03:47;;;;;;;12.93;4.72;;;;;;;-149.78;100.00;50436.25;4897253;29;20060;-71
2022/04/27 05:06:14;;;;;;;16.45;4.93;;;;;;;-149.78;100.00;50385.38;4897483;29;20101;-71
2022/04/27 05:08:39;;;;;;;9.65;4.20;;;;;;;-149.78;100.00;50377.56;4896098;29;20482;-71
2022/04/27 05:11:05;;;;;;;12.55;4.70;;;;;;;-149.78;100.00;50412.78;4897241;29;20066;-71
2022/04/27 05:13:30;;;;;;;12.85;4.82;;;;;;;-149.78;100.00;50361.91;4895877;29;20041;-71
2022/04/27 05:15:56;;;;;;;12.38;5.00;;;;;;;-149.78;100.00;50406.91;4895916;29;20040;-71
2022/04/27 05:18:22;;;;;;;16.33;5.57;;;;;;;-149.78;100.00;50397.13;4896159;29;20040;-71
2022/04/27 05:20:49;;;;;;;20.17;5.57;;;;;;;-149.78;100.00;50424.50;4880439;29;20446;-71
2022/04/27 05:23:16;;;;;;;11.15;4.78;;;;;;;-149.78;100.00;50408.84;4896996;29;20037;-70
2022/04/27 05:25:41;;;;;;;13.80;5.28;;;;;;;-149.78;100.00;50385.38;4897011;29;20082;-71
2022/04/27 05:28:07;;;;;;;13.50;4.65;;;;;;;-149.78;100.00;50393.22;4895846;29;20197;-71
2022/04/27 05:33:18;;;;;;;11.18;4.88;;;;;;;-149.78;100.00;50389.31;4900549;29;20048;-71
2022/04/27 05:35:44;;;;;;;11.10;4.47;;;;;;;-149.78;100.00;50395.16;4899371;29;20112;-71
2022/04/27 05:38:10;;;;;;;11.95;4.80;;;;;;;-149.78;100.00;50389.31;4900273;29;20036;-71
2022/04/27 05:40:36;;;;;;;11.23;4.93;;;;;;;-149.78;100.00;50381.47;4891164;29;20396;-71
2022/04/27 05:43:05;;;;;;;11.25;4.65;;;;;;;-149.78;100.00;50401.03;4888886;29;20041;-71
2022/04/27 05:45:34;;;;;;;14.60;4.75;;;;;;;-149.78;100.00;50383.44;4887214;29;20073;-71
2022/04/27 05:48:00;;;;;;;13.00;3.90;;;;;;;-149.78;100.00;50387.34;4885327;29;20029;-71
2022/04/27 05:50:25;;;;;;;15.10;5.22;;;;;;;-149.78;100.00;50389.31;4888401;29;20057;-71
2022/04/27 05:52:56;;;;;;;17.83;5.15;;;;;;;-149.78;100.00;50424.50;4888807;29;20104;-71
2022/04/27 05:55:22;;;;;;;13.30;4.80;;;;;;;-149.78;100.00;50346.28;4888914;29;20041;-71
2022/04/27 05:57:47;;;;;;;12.75;4.60;;;;;;;-149.78;100.00;50367.78;4893579;29;20136;-71
2022/04/27 06:00:14;;;;;;;15.43;5.00;;;;;;;-149.78;100.00;50397.13;4890819;29;20108;-71
2022/04/27 06:02:40;;;;;;;11.00;5.07;;;;;;;-149.78;100.00;50373.66;4900265;29;20080;-71
2022/04/27 06:05:07;;;;;;;14.07;4.95;;;;;;;-149.78;100.00;50356.06;4888244;29;20040;-71
2022/04/27 06:07:35;;;;;;;13.95;5.10;;;;;;;-149.78;100.00;50350.19;4887900;29;20041;-71
2022/04/27 06:10:05;;;;;;;10.88;5.18;;;;;;;-149.78;100.00;50359.97;4893691;29;20025;-71
2022/04/27 06:12:36;;;;;;;10.88;5.13;;;;;;;-149.78;100.00;50371.69;4884692;29;20383;-71
2022/04/27 06:15:10;;;;;;;16.30;5.50;;;;;;;-149.78;100.00;50393.22;4891176;29;20043;-71
2022/04/27 06:17:37;;;;;;;11.88;4.50;;;;;;;-149.78;100.00;50385.38;4896502;29;20099;-70
2022/04/27 06:20:03;;;;;;;16.13;5.50;;;;;;;-149.78;100.00;50387.34;4881428;29;20047;-72
2022/04/27 06:22:28;;;;;;;13.20;4.70;;;;;;;-149.78;100.00;50381.47;4879858;29;20045;-71
2022/04/27 06:24:54;;;;;;;11.82;5.00;;;;;;;-149.78;100.00;50377.56;4864566;29;20044;-72
2022/04/27 06:27:20;;;;;;;17.52;5.18;;;;;;;-149.78;100.00;50377.56;4879821;29;20037;-70
2022/04/27 06:29:45;;;;;;;15.57;5.45;;;;;;;-149.78;100.00;50393.22;4884678;29;20033;-69
2022/04/27 06:32:11;;;;;;;13.27;5.32;;;;;;;-149.78;100.00;50377.56;4873662;29;20511;-70
2022/04/27 06:34:37;;;;;;;14.15;4.78;;;;;;;-149.78;100.00;50356.06;4890642;29;20504;-71
2022/04/27 06:37:03;;;;;;;14.40;5.80;;;;;;;-149.78;100.00;50401.03;4898860;29;20396;-70
2022/04/27 06:39:28;;;;;;;13.43;4.90;;;;;;;-149.78;100.00;50369.75;4894654;29;20386;-69
2022/04/27 06:41:54;;;;;;;15.57;5.15;;;;;;;-149.78;100.00;50365.84;4888517;29;20141;-70
2022/04/27 06:44:20;;;;;;;14.68;5.32;;;;;;;-149.78;100.00;50377.56;4892868;29;20044;-70
2022/04/27 06:46:45;;;;;;;12.13;5.22;;;;;;;-149.78;100.00;50393.22;4897918;29;20044;-71
2022/04/27 06:56:00;;;;;;;14.05;5.43;;;;;;;-149.78;100.00;50346.28;5519527;24;20149;31
2022/04/27 06:58:26;;;;;;;15.73;5.78;;;;;;;-149.78;100.00;50381.47;4941327;24;20209;-73
2022/04/27 07:00:51;;;;;;;19.90;5.20;;;;;;;-149.78;100.00;50350.19;4701977;30;20045;-74
2022/04/27 07:03:17;;;;;;;11.43;4.43;;;;;;;-149.78;100.00;50385.38;4701186;30;20132;-74
2022/04/27 07:05:43;;;;;;;12.13;4.60;;;;;;;-149.78;100.00;50361.91;4717297;30;20041;-74
2022/04/27 07:08:09;;;;;;;10.95;4.60;;;;;;;-149.78;100.00;50377.56;4714479;30;20132;-74
2022/04/27 07:10:36;;;;;;;14.88;4.85;;;;;;;-149.78;100.00;50358.00;4714949;30;20048;-74
2022/04/27 07:13:03;;;;;;;11.48;4.40;;;;;;;-149.78;100.00;50342.38;4702312;30;20050;-74
2022/04/27 07:15:29;;;;;;;16.52;4.85;;;;;;;-149.78;100.00;50361.91;4689830;30;20044;-76
2022/04/27 07:17:55;;;;;;;11.88;4.28;;;;;;;-149.78;100.00;50344.31;4681736;30;20096;-76
2022/04/27 07:20:20;;;;;;;16.48;4.88;;;;;;;-149.78;100.00;50381.47;4709014;30;20457;-76
2022/04/27 07:22:46;;;;;;;13.23;4.60;;;;;;;-149.78;100.00;50385.38;4708294;30;20129;-76
2022/04/27 07:25:14;;;;;;;15.98;4.88;;;;;;;-149.78;100.00;50369.75;4694156;30;20132;-76
2022/04/27 07:27:40;;;;;;;15.32;5.40;;;;;;;-149.78;100.00;50342.38;4692303;30;20048;-74
2022/04/27 07:30:06;;;;;;;17.55;5.50;;;;;;;-149.78;100.00;50377.56;4708277;30;20037;-76
2022/04/27 07:32:31;;;;;;;18.60;5.40;;;;;;;-149.78;100.00;50318.91;4695265;30;20075;-76
2022/04/27 07:34:58;;;;;;;15.30;5.38;;;;;;;-149.78;100.00;50389.31;4687400;30;20068;-76
2022/04/27 07:37:24;;;;;;;19.52;6.05;;;;;;;-149.78;100.00;50342.38;4699340;30;20045;-75
2022/04/27 07:39:49;;;;;;;17.80;7.15;;;;;;;-149.78;100.00;50375.63;4696751;30;20124;-75
2022/04/27 07:42:15;;;;;;;18.25;6.63;;;;;;;-149.78;100.00;50408.84;4718246;30;20152;-76
2022/04/27 07:44:41;;;;;;;14.32;5.72;;;;;;;-149.78;100.00;50361.91;4717334;30;20068;-75
2022/04/27 07:47:08;;;;;;;13.27;5.30;;;;;;;-149.78;100.00;50371.69;4714091;30;20218;-74
2022/04/27 07:49:34;;;;;;;17.20;5.00;;;;;;;-149.78;100.00;50361.91;4712787;30;20037;-75
2022/04/27 07:52:00;;;;;;;16.73;5.18;;;;;;;-149.78;100.00;50344.31;4701695;30;20055;-74
2022/04/27 07:54:25;;;;;;;11.85;5.28;;;;;;;-149.78;100.00;50369.75;4708419;30;20049;-74
2022/04/27 07:56:51;;;;;;;11.15;5.10;;;;;;;-149.78;100.00;50348.22;4716852;30;20045;-74
2022/04/27 07:59:17;;;;;;;18.63;4.22;;;;;;;-149.78;100.00;50356.06;4687515;30;20540;-74
2022/04/27 08:01:43;;;;;;;13.38;5.00;;;;;;;-149.78;100.00;50361.91;4701241;30;20043;-74
2022/04/27 08:04:08;;;;;;;7.90;3.60;;;;;;;-149.78;100.00;50358.00;4715748;30;20045;-73
2022/04/27 08:06:36;;;;;;;11.15;4.20;;;;;;;-149.78;100.00;50326.72;4693579;30;20096;-74
2022/04/27 08:09:02;;;;;;;9.88;3.53;;;;;;;-149.78;100.00;50373.66;4701020;30;20132;-74
2022/04/27 08:11:28;;;;;;;12.57;4.15;;;;;;;-149.78;100.00;50358.00;4687475;30;20061;-74
2022/04/27 08:13:53;;;;;;;14.50;4.35;;;;;;;-149.78;100.00;50350.19;4701970;30;20138;-74
2022/04/27 08:16:19;;;;;;;9.75;3.92;;;;;;;-149.78;100.00;50346.28;4688506;30;20101;-74
2022/04/27 08:18:46;;;;;;;14.30;4.40;;;;;;;-149.78;100.00;50328.69;4677287;30;20069;-74
2022/04/27 08:21:14;;;;;;;14.02;3.90;;;;;;;-149.78;100.00;50348.22;4685253;30;20045;-74
2022/04/27 08:23:41;;;;;;;20.58;4.43;;;;;;;-149.78;100.00;50346.28;4673253;30;20047;-73
2022/04/27 08:26:08;;;;;;;11.23;4.43;;;;;;;-149.78;100.00;50342.38;4717072;30;20041;-73
2022/04/27 08:28:37;;;;;;;13.75;3.80;;;;;;;-149.78;100.00;50358.00;4701475;30;20052;-74
2022/04/27 08:31:03;;;;;;;13.52;4.18;;;;;;;-149.78;100.00;50365.84;4685996;30;20037;-74
2022/04/27 08:33:29;;;;;;;16.70;5.13;;;;;;;-149.78;100.00;50342.38;4699559;30;20044;-73
2022/04/27 08:35:57;;;;;;;18.15;4.40;;;;;;;-149.78;100.00;50373.66;4684360;30;20033;-74
2022/04/27 08:38:24;;;;;;;15.20;4.00;;;;;;;-149.78;100.00;50350.19;4699656;30;20121;-73
2022/04/27 08:40:50;;;;;;;14.32;4.10;;;;;;;-149.78;100.00;50318.91;4684361;30;20049;-74
2022/04/27 08:43:16;;;;;;;12.02;4.43;;;;;;;-149.78;100.00;50369.75;4669807;30;20368;-74
2022/04/27 08:45:44;;;;;;;13.13;4.35;;;;;;;-149.78;100.00;50365.84;4699913;30;20042;-73
2022/04/27 08:48:11;;;;;;;17.65;4.32;;;;;;;-149.78;100.00;50340.41;4699708;30;20069;-73
2022/04/27 08:50:38;;;;;;;12.38;4.57;;;;;;;-149.78;100.00;50361.91;4700199;30;20096;-73
2022/04/27 08:53:04;;;;;;;14.02;4.47;;;;;;;-149.78;100.00;50369.75;4679476;30;20836;-73
2022/04/27 08:55:30;;;;;;;11.82;4.30;;;;;;;-149.78;100.00;50375.63;4687175;30;20438;-73
2022/04/27 08:58:10;;;;;;;10.55;4.22;;;;;;;-149.78;100.00;50354.09;4683937;30;20061;-74
2022/04/27 09:00:38;;;;;;;13.02;4.72;;;;;;;-149.78;100.00;50371.69;4702942;30;20045;-74
2022/04/27 09:03:22;;;;;;;11.20;4.63;;;;;;;-149.78;100.00;50373.66;4717270;30;20045;-72
2022/04/27 09:05:59;;;;;;;11.65;4.80;;;;;;;-149.78;100.00;50369.75;4717247;30;20623;-74
2022/04/27 09:08:35;;;;;;;17.55;4.95;;;;;;;-149.78;100.00;50342.38;4708306;30;20470;-74
2022/04/27 09:11:12;;;;;;;11.88;4.57;;;;;;;-149.78;100.00;50344.31;4672520;30;20038;-75
2022/04/27 09:13:38;;;;;;;19.75;4.80;;;;;;;-149.78;100.00;50361.91;4720836;30;20045;-75
2022/04/27 09:16:04;;;;;;;12.80;5.00;;;;;;;-149.78;100.00;50379.53;4717283;30;20047;-74
2022/04/27 09:21:31;;;;;;;15.38;5.05;;;;;;;-149.78;100.00;50350.19;4703806;30;20042;-74
2022/04/27 09:24:03;;;;;;;12.48;4.03;;;;;;;-149.78;100.00;50334.53;4703532;30;20049;-74
2022/04/27 09:26:31;;;;;;;12.23;3.88;;;;;;;-149.78;100.00;50350.19;4673923;30;20177;-74
2022/04/27 09:28:59;;;;;;;15.18;4.13;;;;;;;-149.78;100.00;50342.38;4699663;30;20049;-74
2022/04/27 09:31:29;;;;;;;15.00;3.92;;;;;;;-149.78;100.00;50334.53;4704682;30;20041;-74
2022/04/27 09:34:00;;;;;;;15.95;4.28;;;;;;;-149.78;100.00;50340.41;4720306;30;20065;-74
2022/04/27 09:36:27;;;;;;;11.02;3.58;;;;;;;-149.78;100.00;50350.19;4719989;30;20127;-73
2022/04/27 09:38:56;;;;;;;13.27;3.83;;;;;;;-149.78;100.00;50336.50;4704717;30;20048;-73
2022/04/27 09:41:44;;;;;;;13.35;4.13;;;;;;;-149.78;100.00;50314.97;4702667;30;20355;-74
2022/04/27 09:44:30;;;;;;;10.68;3.65;;;;;;;-149.78;100.00;50328.69;4714523;30;20077;-74
2022/04/27 09:46:55;;;;;;;10.02;4.05;;;;;;;-149.78;100.00;50326.72;4716334;30;20040;-74
2022/04/27 09:49:21;;;;;;;13.52;4.03;;;;;;;-149.78;100.00;50356.06;4697584;30;20073;-73
2022/04/27 09:51:49;;;;;;;10.63;4.00;;;;;;;-149.78;100.00;50307.16;4705136;30;20038;-74
2022/04/27 09:54:37;;;;;;;13.23;4.25;;;;;;;-149.78;100.00;50365.84;4702074;30;20053;-74
2022/04/27 09:57:05;;;;;;;13.13;4.03;;;;;;;-149.78;100.00;50361.91;4702294;30;20041;-72
2022/04/27 09:59:32;;;;;;;11.23;4.65;;;;;;;-149.78;100.00;50303.25;4702486;30;20112;-72
2022/04/27 10:02:08;;;;;;;10.00;4.18;;;;;;;-149.78;100.00;50361.91;4687050;30;20064;-72
2022/04/27 10:04:36;;;;;;;9.48;4.05;;;;;;;-149.78;100.00;50330.63;4707482;30;20409;-72
2022/04/27 10:07:04;;;;;;;9.65;4.00;;;;;;;-149.78;100.00;50358.00;4709087;30;20148;-72
2022/04/27 10:09:32;;;;;;;10.93;4.15;;;;;;;-149.78;100.00;50354.09;4716924;30;20045;-72
2022/04/27 10:12:03;;;;;;;9.02;3.83;;;;;;;-149.78;100.00;50322.81;4703938;30;20060;-72
2022/04/27 10:14:30;;;;;;;9.43;4.65;;;;;;;-149.78;100.00;50330.63;4704080;30;20049;-73
2022/04/27 10:16:57;;;;;;;16.85;4.50;;;;;;;-149.78;100.00;50326.72;4719736;30;20144;-72
2022/04/27 10:19:24;;;;;;;13.20;4.55;;;;;;;-149.78;100.00;50373.66;4718799;30;20463;-72
2022/04/27 10:21:57;;;;;;;11.05;4.78;;;;;;;-149.78;100.00;50358.00;4689424;30;20111;-72
2022/04/27 10:24:37;;;;;;;11.05;4.38;;;;;;;-149.78;100.00;50350.19;4713854;30;20137;-71
2022/04/27 10:27:23;;;;;;;12.68;4.35;;;;;;;-149.78;100.00;50342.38;4712135;30;20030;-72
2022/04/27 10:30:09;;;;;;;11.85;4.32;;;;;;;-149.78;100.00;50332.59;4706898;30;20524;-72
2022/04/27 10:32:47;;;;;;;11.25;4.55;;;;;;;-149.78;100.00;50338.44;4705427;30;20452;-72
2022/04/27 10:35:17;;;;;;;9.65;4.45;;;;;;;-149.78;100.00;50367.78;4668480;30;20387;-74
2022/04/27 10:37:43;;;;;;;19.92;5.10;;;;;;;-149.78;100.00;50295.44;4683497;30;20103;-71
2022/04/27 10:40:42;;;;;;;10.43;4.30;;;;;;;-149.78;100.00;50346.28;4684414;30;20450;-73
2022/04/27 10:43:07;;;;;;;12.70;4.55;;;;;;;-149.78;100.00;50322.81;4677546;30;20061;-72
2022/04/27 10:45:50;;;;;;;17.30;4.53;;;;;;;-149.78;100.00;50322.81;4684309;30;20115;-70
2022/04/27 10:48:24;;;;;;;13.77;5.18;;;;;;;-149.78;100.00;50342.38;4668736;30;20052;-71
2022/04/27 10:50:57;;;;;;;14.98;4.70;;;;;;;-149.78;100.00;50307.16;4682893;30;20124;-72
2022/04/27 10:53:24;;;;;;;17.77;5.45;;;;;;;-149.78;100.00;50320.84;4684431;30;20038;-73
2022/04/27 10:55:53;;;;;;;11.52;5.13;;;;;;;-149.78;100.00;50330.63;4684274;30;20042;-73
2022/04/27 10:58:22;;;;;;;14.63;6.20;;;;;;;-149.78;100.00;50322.81;4699353;30;20049;-72
2022/04/27 11:01:03;;;;;;;14.18;5.68;;;;;;;-149.78;100.00;50322.81;4708641;30;20041;-73
2022/04/27 11:03:36;;;;;;;20.90;5.65;;;;;;;-149.78;100.00;50332.59;4685763;30;20041;-73
2022/04/27 11:06:04;;;;;;;13.23;5.47;;;;;;;-149.78;100.00;50322.81;4695080;30;20588;-72
2022/04/27 11:08:32;;;;;;;18.05;5.20;;;;;;;-149.78;100.00;50326.72;4717544;30;20041;-73
2022/04/27 11:11:05;;;;;;;13.93;5.30;;;;;;;-149.78;100.00;50307.16;4718336;30;20037;-72
2022/04/27 11:13:34;;;;;;;14.95;5.32;;;;;;;-149.78;100.00;50299.34;4718378;30;20048;-72
2022/04/27 11:16:07;;;;;;;17.95;5.95;;;;;;;-149.78;100.00;50365.84;4718260;30;20041;-72
2022/04/27 11:18:53;;;;;;;11.55;5.13;;;;;;;-149.78;100.00;50365.84;4675610;30;20124;-73
2022/04/27 11:21:20;;;;;;;11.48;5.78;;;;;;;-149.78;100.00;50314.97;4686235;30;20103;-73
2022/04/27 11:23:46;;;;;;;14.32;5.55;;;;;;;-149.78;100.00;50326.72;4685846;30;20054;-73
2022/04/27 11:26:13;;;;;;;14.18;5.85;;;;;;;-149.78;100.00;50352.16;4664741;30;20360;-73